This is the latest recevied weather packets stored in our database for station/object PY2CQC-13. If no packets are shown the sender has not sent any weather packets the latest 10 day(s).
| Time | Temp. | Humidity | Pressure | Rain* | Wind** | Luminosity | Snow |
|---|---|---|---|---|---|---|---|
| 1777159924 | 26.67° C | 59% | 1030.8 hPa | - | - | - | - |
| 1777158124 | 26.67° C | 58% | 1030.6 hPa | - | - | - | - |
| 1777156325 | 26.67° C | 58% | 1030.3 hPa | - | - | - | - |
| 1777154525 | 27.22° C | 56% | 1030.1 hPa | - | - | - | - |
| 1777152725 | 27.22° C | 56% | 1030 hPa | - | - | - | - |
| 1777150925 | 27.78° C | 56% | 1030.1 hPa | - | - | - | - |
| 1777149125 | 27.78° C | 54% | 1030 hPa | - | - | - | - |
| 1777147324 | 27.78° C | 54% | 1029.9 hPa | - | - | - | - |
| 1777145540 | 27.78° C | 54% | 1029.9 hPa | - | - | - | - |
| 1777143725 | 27.78° C | 52% | 1029.7 hPa | - | - | - | - |
| 1777141933 | 27.78° C | 52% | 1029.6 hPa | - | - | - | - |
| 1777140125 | 27.78° C | 52% | 1029.8 hPa | - | - | - | - |
| 1777138325 | 27.22° C | 52% | 1030 hPa | - | - | - | - |
| 1777136525 | 27.22° C | 51% | 1030.2 hPa | - | - | - | - |
| 1777134725 | 26.67° C | 53% | 1030.5 hPa | - | - | - | - |
| 1777132924 | 27.22° C | 54% | 1031 hPa | - | - | - | - |
| 1777131124 | 26.11° C | 59% | 1031.5 hPa | - | - | - | - |
| 1777129325 | 27.78° C | 55% | 1031.9 hPa | - | - | - | - |
| 1777127525 | 26.67° C | 58% | 1032.4 hPa | - | - | - | - |
| 1777125725 | 26.11° C | 60% | 1032.9 hPa | - | - | - | - |
| 1777123926 | 26.67° C | 58% | 1033.3 hPa | - | - | - | - |
| 1777122124 | 26.67° C | 58% | 1033.6 hPa | - | - | - | - |
| 1777120324 | 26.11° C | 59% | 1033.5 hPa | - | - | - | - |
| 1777118524 | 25.56° C | 61% | 1033.4 hPa | - | - | - | - |
| 1777116725 | 24.44° C | 64% | 1033.2 hPa | - | - | - | - |
* Rain since midnight (hover to see other rain measurements)
** Current wind speed in m/s (hover to see current wind gust speed)